sensor_id;sensor_type;location;lat;lon;timestamp;temperature;humidity
3108;DHT22;1564;49.234;8.554;2023-07-13T00:01:49;20.10;1.00
3108;DHT22;1564;49.234;8.554;2023-07-13T00:04:19;19.90;1.00
3108;DHT22;1564;49.234;8.554;2023-07-13T00:06:46;19.90;1.00
3108;DHT22;1564;49.234;8.554;2023-07-13T00:09:16;19.70;1.00
3108;DHT22;1564;49.234;8.554;2023-07-13T00:11:43;19.70;1.00
3108;DHT22;1564;49.234;8.554;2023-07-13T00:14:10;19.50;99.90
3108;DHT22;1564;49.234;8.554;2023-07-13T00:16:37;19.40;1.00
3108;DHT22;1564;49.234;8.554;2023-07-13T00:19:04;19.30;1.00
3108;DHT22;1564;49.234;8.554;2023-07-13T00:21:30;19.20;92.00
3108;DHT22;1564;49.234;8.554;2023-07-13T00:23:57;19.10;99.90
3108;DHT22;1564;49.234;8.554;2023-07-13T00:26:22;19.00;99.90
3108;DHT22;1564;49.234;8.554;2023-07-13T00:28:48;18.90;1.00
3108;DHT22;1564;49.234;8.554;2023-07-13T00:31:14;18.80;99.90
3108;DHT22;1564;49.234;8.554;2023-07-13T00:33:41;18.80;1.00
3108;DHT22;1564;49.234;8.554;2023-07-13T00:36:08;18.70;1.00
3108;DHT22;1564;49.234;8.554;2023-07-13T00:38:34;18.40;1.00
3108;DHT22;1564;49.234;8.554;2023-07-13T00:41:02;18.30;99.90
3108;DHT22;1564;49.234;8.554;2023-07-13T00:43:30;18.20;1.00
3108;DHT22;1564;49.234;8.554;2023-07-13T00:46:41;18.10;1.00
3108;DHT22;1564;49.234;8.554;2023-07-13T00:49:11;17.90;1.00
3108;DHT22;1564;49.234;8.554;2023-07-13T00:51:44;17.80;1.00
3108;DHT22;1564;49.234;8.554;2023-07-13T00:54:15;17.60;1.00
3108;DHT22;1564;49.234;8.554;2023-07-13T00:56:44;17.50;33.80
3108;DHT22;1564;49.234;8.554;2023-07-13T00:59:12;17.40;99.90
3108;DHT22;1564;49.234;8.554;2023-07-13T01:01:38;17.30;99.90
3108;DHT22;1564;49.234;8.554;2023-07-13T01:04:05;17.20;1.00
3108;DHT22;1564;49.234;8.554;2023-07-13T01:06:35;17.10;1.00
3108;DHT22;1564;49.234;8.554;2023-07-13T01:09:01;17.00;99.90
3108;DHT22;1564;49.234;8.554;2023-07-13T01:11:28;17.00;99.90
3108;DHT22;1564;49.234;8.554;2023-07-13T01:13:53;16.80;1.00
3108;DHT22;1564;49.234;8.554;2023-07-13T01:16:26;16.70;1.00
3108;DHT22;1564;49.234;8.554;2023-07-13T01:18:52;16.60;1.00
3108;DHT22;1564;49.234;8.554;2023-07-13T01:21:18;16.60;1.00
3108;DHT22;1564;49.234;8.554;2023-07-13T01:23:44;16.50;1.00
3108;DHT22;1564;49.234;8.554;2023-07-13T01:26:11;16.50;1.00
3108;DHT22;1564;49.234;8.554;2023-07-13T01:28:37;16.50;1.00
3108;DHT22;1564;49.234;8.554;2023-07-13T01:31:04;16.50;1.00
3108;DHT22;1564;49.234;8.554;2023-07-13T01:33:30;16.40;1.00
3108;DHT22;1564;49.234;8.554;2023-07-13T01:35:55;16.40;1.00
3108;DHT22;1564;49.234;8.554;2023-07-13T01:38:24;16.40;1.00
3108;DHT22;1564;49.234;8.554;2023-07-13T01:40:52;16.40;1.00
3108;DHT22;1564;49.234;8.554;2023-07-13T01:43:18;16.40;1.00
3108;DHT22;1564;49.234;8.554;2023-07-13T01:45:44;16.30;1.00
3108;DHT22;1564;49.234;8.554;2023-07-13T01:48:11;16.30;1.00
3108;DHT22;1564;49.234;8.554;2023-07-13T01:50:37;16.20;1.00
3108;DHT22;1564;49.234;8.554;2023-07-13T01:53:03;16.20;1.00
3108;DHT22;1564;49.234;8.554;2023-07-13T01:55:29;16.20;1.00
3108;DHT22;1564;49.234;8.554;2023-07-13T01:57:56;16.10;1.00
3108;DHT22;1564;49.234;8.554;2023-07-13T02:00:22;16.00;1.00
3108;DHT22;1564;49.234;8.554;2023-07-13T02:02:48;15.90;1.00
3108;DHT22;1564;49.234;8.554;2023-07-13T02:05:14;15.90;1.00
3108;DHT22;1564;49.234;8.554;2023-07-13T02:07:40;15.80;1.00
3108;DHT22;1564;49.234;8.554;2023-07-13T02:10:08;15.70;1.00
3108;DHT22;1564;49.234;8.554;2023-07-13T02:12:34;15.70;1.00
3108;DHT22;1564;49.234;8.554;2023-07-13T02:15:00;15.60;1.00
3108;DHT22;1564;49.234;8.554;2023-07-13T02:17:27;15.60;1.00
3108;DHT22;1564;49.234;8.554;2023-07-13T02:19:52;15.50;1.00
3108;DHT22;1564;49.234;8.554;2023-07-13T02:22:18;15.40;1.00
3108;DHT22;1564;49.234;8.554;2023-07-13T02:24:44;15.30;1.00
3108;DHT22;1564;49.234;8.554;2023-07-13T02:27:10;15.30;1.00
3108;DHT22;1564;49.234;8.554;2023-07-13T02:29:36;15.20;1.00
3108;DHT22;1564;49.234;8.554;2023-07-13T02:32:02;15.20;1.00
3108;DHT22;1564;49.234;8.554;2023-07-13T02:34:29;15.10;1.00
3108;DHT22;1564;49.234;8.554;2023-07-13T02:36:55;15.10;1.00
3108;DHT22;1564;49.234;8.554;2023-07-13T02:39:21;15.00;1.00
3108;DHT22;1564;49.234;8.554;2023-07-13T02:41:46;14.90;1.00
3108;DHT22;1564;49.234;8.554;2023-07-13T02:44:13;14.90;1.00
3108;DHT22;1564;49.234;8.554;2023-07-13T02:46:39;14.80;1.00
3108;DHT22;1564;49.234;8.554;2023-07-13T02:49:06;14.70;1.00
3108;DHT22;1564;49.234;8.554;2023-07-13T02:51:32;14.70;1.00
3108;DHT22;1564;49.234;8.554;2023-07-13T02:54:00;14.60;1.00
3108;DHT22;1564;49.234;8.554;2023-07-13T02:56:28;14.50;1.00
3108;DHT22;1564;49.234;8.554;2023-07-13T02:58:54;14.50;1.00
3108;DHT22;1564;49.234;8.554;2023-07-13T03:01:21;14.50;1.00
3108;DHT22;1564;49.234;8.554;2023-07-13T03:03:47;14.50;1.00
3108;DHT22;1564;49.234;8.554;2023-07-13T03:06:14;14.60;1.00
3108;DHT22;1564;49.234;8.554;2023-07-13T03:08:40;14.60;1.00
3108;DHT22;1564;49.234;8.554;2023-07-13T03:11:18;14.60;1.00
3108;DHT22;1564;49.234;8.554;2023-07-13T03:13:45;14.60;1.00
3108;DHT22;1564;49.234;8.554;2023-07-13T03:16:11;14.60;1.00
3108;DHT22;1564;49.234;8.554;2023-07-13T03:18:38;14.60;1.00
3108;DHT22;1564;49.234;8.554;2023-07-13T03:21:04;14.60;1.00
3108;DHT22;1564;49.234;8.554;2023-07-13T03:23:31;14.70;1.00
3108;DHT22;1564;49.234;8.554;2023-07-13T03:26:09;14.60;1.00
3108;DHT22;1564;49.234;8.554;2023-07-13T03:28:36;14.70;1.00
3108;DHT22;1564;49.234;8.554;2023-07-13T03:31:11;14.60;1.00
3108;DHT22;1564;49.234;8.554;2023-07-13T03:33:37;14.60;1.00
3108;DHT22;1564;49.234;8.554;2023-07-13T03:36:05;14.60;1.00
3108;DHT22;1564;49.234;8.554;2023-07-13T03:38:32;14.60;1.00
3108;DHT22;1564;49.234;8.554;2023-07-13T03:40:58;14.60;1.00
3108;DHT22;1564;49.234;8.554;2023-07-13T03:43:25;14.60;1.00
3108;DHT22;1564;49.234;8.554;2023-07-13T03:45:50;14.50;1.00
3108;DHT22;1564;49.234;8.554;2023-07-13T03:48:16;14.60;1.00
3108;DHT22;1564;49.234;8.554;2023-07-13T03:50:42;14.50;1.00
3108;DHT22;1564;49.234;8.554;2023-07-13T03:53:08;14.50;1.00
3108;DHT22;1564;49.234;8.554;2023-07-13T03:55:34;14.50;1.00
3108;DHT22;1564;49.234;8.554;2023-07-13T04:00:46;14.40;1.00
3108;DHT22;1564;49.234;8.554;2023-07-13T04:03:11;14.30;1.00
3108;DHT22;1564;49.234;8.554;2023-07-13T04:05:37;14.30;1.00
3108;DHT22;1564;49.234;8.554;2023-07-13T04:08:06;14.30;1.00
3108;DHT22;1564;49.234;8.554;2023-07-13T04:10:31;14.30;1.00
3108;DHT22;1564;49.234;8.554;2023-07-13T04:12:57;14.40;1.00
3108;DHT22;1564;49.234;8.554;2023-07-13T04:15:23;14.40;1.00
3108;DHT22;1564;49.234;8.554;2023-07-13T04:17:49;14.40;1.00
3108;DHT22;1564;49.234;8.554;2023-07-13T04:20:15;14.40;1.00
3108;DHT22;1564;49.234;8.554;2023-07-13T04:22:40;14.50;1.00
3108;DHT22;1564;49.234;8.554;2023-07-13T04:25:06;14.50;1.00
3108;DHT22;1564;49.234;8.554;2023-07-13T04:27:32;14.50;1.00
3108;DHT22;1564;49.234;8.554;2023-07-13T04:29:58;14.60;1.00
3108;DHT22;1564;49.234;8.554;2023-07-13T04:32:24;14.60;1.00
3108;DHT22;1564;49.234;8.554;2023-07-13T04:34:50;14.70;1.00
3108;DHT22;1564;49.234;8.554;2023-07-13T04:37:19;14.70;1.00
3108;DHT22;1564;49.234;8.554;2023-07-13T04:39:45;14.90;1.00
3108;DHT22;1564;49.234;8.554;2023-07-13T04:42:11;14.90;1.00
3108;DHT22;1564;49.234;8.554;2023-07-13T04:44:37;15.00;1.00
3108;DHT22;1564;49.234;8.554;2023-07-13T04:47:03;15.10;1.00
3108;DHT22;1564;49.234;8.554;2023-07-13T04:49:29;15.20;1.00
3108;DHT22;1564;49.234;8.554;2023-07-13T04:51:54;15.40;1.00
3108;DHT22;1564;49.234;8.554;2023-07-13T04:54:20;15.40;1.00
3108;DHT22;1564;49.234;8.554;2023-07-13T04:56:47;15.60;1.00
3108;DHT22;1564;49.234;8.554;2023-07-13T04:59:13;15.60;1.00
3108;DHT22;1564;49.234;8.554;2023-07-13T05:01:39;15.80;1.00
3108;DHT22;1564;49.234;8.554;2023-07-13T05:04:06;15.90;1.00
3108;DHT22;1564;49.234;8.554;2023-07-13T05:06:33;16.00;1.00
3108;DHT22;1564;49.234;8.554;2023-07-13T05:08:58;16.10;1.00
3108;DHT22;1564;49.234;8.554;2023-07-13T05:11:24;16.30;1.00
3108;DHT22;1564;49.234;8.554;2023-07-13T05:13:50;16.50;1.00
3108;DHT22;1564;49.234;8.554;2023-07-13T05:16:16;16.70;1.00
3108;DHT22;1564;49.234;8.554;2023-07-13T05:18:41;16.80;1.00
3108;DHT22;1564;49.234;8.554;2023-07-13T05:21:09;17.00;1.00
3108;DHT22;1564;49.234;8.554;2023-07-13T05:23:36;17.20;1.00
3108;DHT22;1564;49.234;8.554;2023-07-13T05:26:03;17.40;1.00
3108;DHT22;1564;49.234;8.554;2023-07-13T05:28:31;17.70;1.00
3108;DHT22;1564;49.234;8.554;2023-07-13T05:30:57;17.80;1.00
3108;DHT22;1564;49.234;8.554;2023-07-13T05:33:24;18.00;1.00
3108;DHT22;1564;49.234;8.554;2023-07-13T05:35:49;18.10;1.00
3108;DHT22;1564;49.234;8.554;2023-07-13T05:38:15;18.40;1.00
3108;DHT22;1564;49.234;8.554;2023-07-13T05:40:45;18.60;1.00
3108;DHT22;1564;49.234;8.554;2023-07-13T05:43:11;18.70;99.90
3108;DHT22;1564;49.234;8.554;2023-07-13T05:45:37;18.90;99.90
3108;DHT22;1564;49.234;8.554;2023-07-13T05:48:03;19.00;1.00
3108;DHT22;1564;49.234;8.554;2023-07-13T05:50:29;19.20;1.00
3108;DHT22;1564;49.234;8.554;2023-07-13T05:52:54;19.40;99.90
3108;DHT22;1564;49.234;8.554;2023-07-13T05:55:22;19.60;99.90
3108;DHT22;1564;49.234;8.554;2023-07-13T05:57:47;19.70;99.90
3108;DHT22;1564;49.234;8.554;2023-07-13T06:00:14;20.00;99.90
3108;DHT22;1564;49.234;8.554;2023-07-13T06:02:40;20.10;99.90
3108;DHT22;1564;49.234;8.554;2023-07-13T06:05:06;20.30;1.00
3108;DHT22;1564;49.234;8.554;2023-07-13T06:07:32;20.40;99.90
3108;DHT22;1564;49.234;8.554;2023-07-13T06:09:57;20.20;99.90
3108;DHT22;1564;49.234;8.554;2023-07-13T06:12:25;20.10;99.90
3108;DHT22;1564;49.234;8.554;2023-07-13T06:14:51;20.30;68.30
3108;DHT22;1564;49.234;8.554;2023-07-13T06:17:17;20.40;1.00
3108;DHT22;1564;49.234;8.554;2023-07-13T06:19:43;20.50;1.00
3108;DHT22;1564;49.234;8.554;2023-07-13T06:22:09;20.50;1.00
3108;DHT22;1564;49.234;8.554;2023-07-13T06:24:37;20.50;1.00
3108;DHT22;1564;49.234;8.554;2023-07-13T06:27:03;20.60;1.00
3108;DHT22;1564;49.234;8.554;2023-07-13T06:29:29;20.60;99.90
3108;DHT22;1564;49.234;8.554;2023-07-13T06:31:55;20.80;1.00
3108;DHT22;1564;49.234;8.554;2023-07-13T06:34:20;20.80;99.90
3108;DHT22;1564;49.234;8.554;2023-07-13T06:36:46;21.00;49.60
3108;DHT22;1564;49.234;8.554;2023-07-13T06:39:12;21.20;99.90
3108;DHT22;1564;49.234;8.554;2023-07-13T06:41:38;21.30;1.00
3108;DHT22;1564;49.234;8.554;2023-07-13T06:44:04;21.40;1.00
3108;DHT22;1564;49.234;8.554;2023-07-13T06:46:30;21.40;1.00
3108;DHT22;1564;49.234;8.554;2023-07-13T06:48:56;21.60;1.00
3108;DHT22;1564;49.234;8.554;2023-07-13T06:51:22;21.50;1.00
3108;DHT22;1564;49.234;8.554;2023-07-13T06:53:48;21.70;1.00
3108;DHT22;1564;49.234;8.554;2023-07-13T06:56:13;21.80;1.00
3108;DHT22;1564;49.234;8.554;2023-07-13T06:58:39;21.90;1.00
3108;DHT22;1564;49.234;8.554;2023-07-13T07:01:05;22.00;1.00
3108;DHT22;1564;49.234;8.554;2023-07-13T07:03:31;22.10;1.00
3108;DHT22;1564;49.234;8.554;2023-07-13T07:08:33;22.30;99.90
3108;DHT22;1564;49.234;8.554;2023-07-13T07:10:59;22.40;99.90
3108;DHT22;1564;49.234;8.554;2023-07-13T07:13:25;22.40;99.90
3108;DHT22;1564;49.234;8.554;2023-07-13T07:15:51;22.40;99.90
3108;DHT22;1564;49.234;8.554;2023-07-13T07:18:17;22.50;99.90
3108;DHT22;1564;49.234;8.554;2023-07-13T07:20:43;22.70;99.90
3108;DHT22;1564;49.234;8.554;2023-07-13T07:23:09;22.70;99.90
3108;DHT22;1564;49.234;8.554;2023-07-13T07:25:34;22.70;99.90
3108;DHT22;1564;49.234;8.554;2023-07-13T07:28:03;22.70;99.90
3108;DHT22;1564;49.234;8.554;2023-07-13T07:30:28;22.70;99.90
3108;DHT22;1564;49.234;8.554;2023-07-13T07:32:54;22.70;99.90
3108;DHT22;1564;49.234;8.554;2023-07-13T07:35:20;22.70;99.90
3108;DHT22;1564;49.234;8.554;2023-07-13T07:37:46;22.70;99.90
3108;DHT22;1564;49.234;8.554;2023-07-13T07:40:12;22.80;99.90
3108;DHT22;1564;49.234;8.554;2023-07-13T07:42:38;23.00;99.90
3108;DHT22;1564;49.234;8.554;2023-07-13T07:45:04;23.10;99.90
3108;DHT22;1564;49.234;8.554;2023-07-13T07:47:30;23.20;99.90
3108;DHT22;1564;49.234;8.554;2023-07-13T07:49:56;23.20;99.90
3108;DHT22;1564;49.234;8.554;2023-07-13T07:52:21;23.30;99.90
3108;DHT22;1564;49.234;8.554;2023-07-13T07:54:47;23.30;99.90
3108;DHT22;1564;49.234;8.554;2023-07-13T07:57:13;23.40;99.90
3108;DHT22;1564;49.234;8.554;2023-07-13T07:59:39;23.50;99.90
3108;DHT22;1564;49.234;8.554;2023-07-13T08:02:05;23.50;99.90
3108;DHT22;1564;49.234;8.554;2023-07-13T08:04:31;23.60;99.90
3108;DHT22;1564;49.234;8.554;2023-07-13T08:06:57;23.80;99.90
3108;DHT22;1564;49.234;8.554;2023-07-13T08:09:23;23.90;99.90
3108;DHT22;1564;49.234;8.554;2023-07-13T08:11:49;24.10;99.90
3108;DHT22;1564;49.234;8.554;2023-07-13T08:14:14;24.20;99.90
3108;DHT22;1564;49.234;8.554;2023-07-13T08:16:41;24.30;99.90
3108;DHT22;1564;49.234;8.554;2023-07-13T08:19:07;24.40;97.20
3108;DHT22;1564;49.234;8.554;2023-07-13T08:21:32;24.30;90.30
3108;DHT22;1564;49.234;8.554;2023-07-13T08:23:58;24.40;99.90
3108;DHT22;1564;49.234;8.554;2023-07-13T08:26:24;24.20;94.30
3108;DHT22;1564;49.234;8.554;2023-07-13T08:28:50;24.30;98.70
3108;DHT22;1564;49.234;8.554;2023-07-13T08:31:15;24.40;99.90
3108;DHT22;1564;49.234;8.554;2023-07-13T08:33:41;24.70;99.90
3108;DHT22;1564;49.234;8.554;2023-07-13T08:36:07;24.80;97.70
3108;DHT22;1564;49.234;8.554;2023-07-13T08:38:34;24.90;98.20
3108;DHT22;1564;49.234;8.554;2023-07-13T08:41:00;25.10;92.10
3108;DHT22;1564;49.234;8.554;2023-07-13T08:43:30;25.30;86.10
3108;DHT22;1564;49.234;8.554;2023-07-13T08:46:34;25.40;80.10
3108;DHT22;1564;49.234;8.554;2023-07-13T08:49:09;25.50;76.50
3108;DHT22;1564;49.234;8.554;2023-07-13T08:55:38;25.40;68.70
3108;DHT22;1564;49.234;8.554;2023-07-13T08:58:16;25.70;55.30
3108;DHT22;1564;49.234;8.554;2023-07-13T09:00:54;25.80;40.90
3108;DHT22;1564;49.234;8.554;2023-07-13T09:03:27;25.70;45.50
3108;DHT22;1564;49.234;8.554;2023-07-13T09:05:59;25.30;44.90
3108;DHT22;1564;49.234;8.554;2023-07-13T09:08:55;25.10;52.90
3108;DHT22;1564;49.234;8.554;2023-07-13T09:11:52;25.10;62.10
3108;DHT22;1564;49.234;8.554;2023-07-13T09:14:45;25.20;63.10
3108;DHT22;1564;49.234;8.554;2023-07-13T09:17:20;25.20;59.50
3108;DHT22;1564;49.234;8.554;2023-07-13T09:19:56;25.30;81.10
3108;DHT22;1564;49.234;8.554;2023-07-13T09:22:23;25.50;60.30
3108;DHT22;1564;49.234;8.554;2023-07-13T09:25:00;25.60;41.70
3108;DHT22;1564;49.234;8.554;2023-07-13T09:27:38;25.70;38.30
3108;DHT22;1564;49.234;8.554;2023-07-13T09:32:43;25.60;32.10
3108;DHT22;1564;49.234;8.554;2023-07-13T09:35:12;25.50;39.50
3108;DHT22;1564;49.234;8.554;2023-07-13T09:37:38;25.50;40.30
3108;DHT22;1564;49.234;8.554;2023-07-13T09:40:16;25.70;45.90
3108;DHT22;1564;49.234;8.554;2023-07-13T09:42:42;26.00;37.80
3108;DHT22;1564;49.234;8.554;2023-07-13T09:45:08;26.20;19.70
3108;DHT22;1564;49.234;8.554;2023-07-13T09:47:39;26.30;17.80
3108;DHT22;1564;49.234;8.554;2023-07-13T09:50:16;26.30;9.50
3108;DHT22;1564;49.234;8.554;2023-07-13T09:52:44;26.10;14.50
3108;DHT22;1564;49.234;8.554;2023-07-13T09:55:36;25.80;22.50
3108;DHT22;1564;49.234;8.554;2023-07-13T09:58:17;26.20;22.90
3108;DHT22;1564;49.234;8.554;2023-07-13T10:00:58;26.70;25.20
3108;DHT22;1564;49.234;8.554;2023-07-13T10:03:29;27.30;1.00
3108;DHT22;1564;49.234;8.554;2023-07-13T10:06:17;27.50;1.00
3108;DHT22;1564;49.234;8.554;2023-07-13T10:08:48;27.30;1.00
3108;DHT22;1564;49.234;8.554;2023-07-13T10:11:24;27.30;1.00
3108;DHT22;1564;49.234;8.554;2023-07-13T10:14:02;26.80;1.00
3108;DHT22;1564;49.234;8.554;2023-07-13T10:16:33;26.70;1.00
3108;DHT22;1564;49.234;8.554;2023-07-13T10:19:48;26.30;1.00
3108;DHT22;1564;49.234;8.554;2023-07-13T10:22:42;26.20;1.00
3108;DHT22;1564;49.234;8.554;2023-07-13T10:25:22;26.20;5.00
3108;DHT22;1564;49.234;8.554;2023-07-13T10:27:51;26.40;2.30
3108;DHT22;1564;49.234;8.554;2023-07-13T10:30:33;26.80;1.00
3108;DHT22;1564;49.234;8.554;2023-07-13T10:33:02;26.40;1.00
3108;DHT22;1564;49.234;8.554;2023-07-13T10:35:30;26.50;1.00
3108;DHT22;1564;49.234;8.554;2023-07-13T10:38:18;26.90;1.00
3108;DHT22;1564;49.234;8.554;2023-07-13T10:41:01;27.40;1.00
3108;DHT22;1564;49.234;8.554;2023-07-13T10:43:43;27.60;1.00
3108;DHT22;1564;49.234;8.554;2023-07-13T10:46:12;27.30;1.00
3108;DHT22;1564;49.234;8.554;2023-07-13T10:48:40;26.90;1.00
3108;DHT22;1564;49.234;8.554;2023-07-13T10:51:08;26.60;1.00
3108;DHT22;1564;49.234;8.554;2023-07-13T10:53:37;26.50;1.00
3108;DHT22;1564;49.234;8.554;2023-07-13T10:57:08;26.30;1.00
3108;DHT22;1564;49.234;8.554;2023-07-13T10:59:35;26.00;1.00
3108;DHT22;1564;49.234;8.554;2023-07-13T11:02:43;26.00;1.00
3108;DHT22;1564;49.234;8.554;2023-07-13T11:05:28;26.60;1.00
3108;DHT22;1564;49.234;8.554;2023-07-13T11:08:20;26.40;1.00
3108;DHT22;1564;49.234;8.554;2023-07-13T11:10:57;26.50;1.00
3108;DHT22;1564;49.234;8.554;2023-07-13T11:13:56;26.50;1.00
3108;DHT22;1564;49.234;8.554;2023-07-13T11:16:46;26.80;1.00
3108;DHT22;1564;49.234;8.554;2023-07-13T11:19:37;27.00;1.00
3108;DHT22;1564;49.234;8.554;2023-07-13T11:22:11;27.30;1.00
3108;DHT22;1564;49.234;8.554;2023-07-13T11:24:59;27.40;1.00
3108;DHT22;1564;49.234;8.554;2023-07-13T11:27:43;27.30;1.00
3108;DHT22;1564;49.234;8.554;2023-07-13T11:31:41;27.00;1.00
3108;DHT22;1564;49.234;8.554;2023-07-13T11:34:13;27.20;1.00
3108;DHT22;1564;49.234;8.554;2023-07-13T11:36:44;27.10;1.00
3108;DHT22;1564;49.234;8.554;2023-07-13T11:39:21;27.40;1.00
3108;DHT22;1564;49.234;8.554;2023-07-13T11:41:55;27.70;1.00
3108;DHT22;1564;49.234;8.554;2023-07-13T11:44:24;27.60;1.00
3108;DHT22;1564;49.234;8.554;2023-07-13T11:46:53;27.80;1.00
3108;DHT22;1564;49.234;8.554;2023-07-13T11:49:22;27.70;1.00
3108;DHT22;1564;49.234;8.554;2023-07-13T11:51:48;27.40;1.00
3108;DHT22;1564;49.234;8.554;2023-07-13T11:54:47;27.30;1.00
3108;DHT22;1564;49.234;8.554;2023-07-13T11:57:29;26.90;1.00
3108;DHT22;1564;49.234;8.554;2023-07-13T11:59:58;26.70;1.00
3108;DHT22;1564;49.234;8.554;2023-07-13T12:02:38;27.00;1.00
3108;DHT22;1564;49.234;8.554;2023-07-13T12:05:05;27.10;1.00
3108;DHT22;1564;49.234;8.554;2023-07-13T12:07:33;27.30;1.00
3108;DHT22;1564;49.234;8.554;2023-07-13T12:10:41;27.50;1.00
3108;DHT22;1564;49.234;8.554;2023-07-13T12:13:09;27.80;1.00
3108;DHT22;1564;49.234;8.554;2023-07-13T12:15:43;27.70;1.00
3108;DHT22;1564;49.234;8.554;2023-07-13T12:18:18;27.40;1.00
3108;DHT22;1564;49.234;8.554;2023-07-13T12:20:46;27.80;1.00
3108;DHT22;1564;49.234;8.554;2023-07-13T12:26:04;28.70;1.00
3108;DHT22;1564;49.234;8.554;2023-07-13T12:29:05;29.10;1.00
3108;DHT22;1564;49.234;8.554;2023-07-13T12:31:42;29.20;1.00
3108;DHT22;1564;49.234;8.554;2023-07-13T12:34:12;29.30;1.00
3108;DHT22;1564;49.234;8.554;2023-07-13T12:36:55;29.50;1.00
3108;DHT22;1564;49.234;8.554;2023-07-13T12:39:32;30.00;1.00
3108;DHT22;1564;49.234;8.554;2023-07-13T12:42:27;30.70;1.00
3108;DHT22;1564;49.234;8.554;2023-07-13T12:45:21;31.50;1.00
3108;DHT22;1564;49.234;8.554;2023-07-13T12:47:50;32.00;1.00
3108;DHT22;1564;49.234;8.554;2023-07-13T12:50:21;32.20;1.00
3108;DHT22;1564;49.234;8.554;2023-07-13T12:52:53;31.70;1.00
3108;DHT22;1564;49.234;8.554;2023-07-13T12:55:20;31.00;1.00
3108;DHT22;1564;49.234;8.554;2023-07-13T12:57:52;30.10;1.00
3108;DHT22;1564;49.234;8.554;2023-07-13T13:00:31;30.80;1.00
3108;DHT22;1564;49.234;8.554;2023-07-13T13:03:02;31.50;1.00
3108;DHT22;1564;49.234;8.554;2023-07-13T13:05:31;31.40;1.00
3108;DHT22;1564;49.234;8.554;2023-07-13T13:07:58;30.90;1.00
3108;DHT22;1564;49.234;8.554;2023-07-13T13:10:23;30.20;1.00
3108;DHT22;1564;49.234;8.554;2023-07-13T13:12:50;30.00;1.00
3108;DHT22;1564;49.234;8.554;2023-07-13T13:15:17;30.50;1.00
3108;DHT22;1564;49.234;8.554;2023-07-13T13:17:43;30.80;1.00
3108;DHT22;1564;49.234;8.554;2023-07-13T13:20:19;30.20;1.00
3108;DHT22;1564;49.234;8.554;2023-07-13T13:22:45;29.50;1.00
3108;DHT22;1564;49.234;8.554;2023-07-13T13:25:15;29.00;1.00
3108;DHT22;1564;49.234;8.554;2023-07-13T13:27:41;29.00;1.00
3108;DHT22;1564;49.234;8.554;2023-07-13T13:30:16;29.40;1.00
3108;DHT22;1564;49.234;8.554;2023-07-13T13:32:47;29.60;1.00
3108;DHT22;1564;49.234;8.554;2023-07-13T13:35:15;29.90;1.00
3108;DHT22;1564;49.234;8.554;2023-07-13T13:37:42;30.40;1.00
3108;DHT22;1564;49.234;8.554;2023-07-13T13:40:16;30.60;1.00
3108;DHT22;1564;49.234;8.554;2023-07-13T13:42:42;31.20;1.00
3108;DHT22;1564;49.234;8.554;2023-07-13T13:45:10;31.30;1.00
3108;DHT22;1564;49.234;8.554;2023-07-13T13:47:36;31.40;1.00
3108;DHT22;1564;49.234;8.554;2023-07-13T13:50:18;31.60;1.00
3108;DHT22;1564;49.234;8.554;2023-07-13T13:52:45;32.80;1.00
3108;DHT22;1564;49.234;8.554;2023-07-13T13:55:21;34.40;1.00
3108;DHT22;1564;49.234;8.554;2023-07-13T13:57:49;34.10;1.00
3108;DHT22;1564;49.234;8.554;2023-07-13T14:00:16;32.60;1.00
3108;DHT22;1564;49.234;8.554;2023-07-13T14:02:46;31.50;1.00
3108;DHT22;1564;49.234;8.554;2023-07-13T14:05:24;31.00;1.00
3108;DHT22;1564;49.234;8.554;2023-07-13T14:07:54;31.20;1.00
3108;DHT22;1564;49.234;8.554;2023-07-13T14:10:21;32.50;1.00
3108;DHT22;1564;49.234;8.554;2023-07-13T14:12:51;33.30;1.00
3108;DHT22;1564;49.234;8.554;2023-07-13T14:15:26;34.50;1.00
3108;DHT22;1564;49.234;8.554;2023-07-13T14:17:55;35.30;1.00
3108;DHT22;1564;49.234;8.554;2023-07-13T14:20:25;36.50;1.00
3108;DHT22;1564;49.234;8.554;2023-07-13T14:22:52;37.50;1.00
3108;DHT22;1564;49.234;8.554;2023-07-13T14:25:19;37.90;1.00
3108;DHT22;1564;49.234;8.554;2023-07-13T14:27:45;38.20;1.00
3108;DHT22;1564;49.234;8.554;2023-07-13T14:30:23;37.80;1.00
3108;DHT22;1564;49.234;8.554;2023-07-13T14:32:52;37.00;1.00
3108;DHT22;1564;49.234;8.554;2023-07-13T14:35:36;35.90;1.00
3108;DHT22;1564;49.234;8.554;2023-07-13T14:38:03;34.70;1.00
3108;DHT22;1564;49.234;8.554;2023-07-13T14:40:31;33.40;1.00
3108;DHT22;1564;49.234;8.554;2023-07-13T14:42:57;31.80;1.00
3108;DHT22;1564;49.234;8.554;2023-07-13T14:45:23;30.40;1.00
3108;DHT22;1564;49.234;8.554;2023-07-13T14:47:56;29.90;1.00
3108;DHT22;1564;49.234;8.554;2023-07-13T14:50:36;29.60;1.00
3108;DHT22;1564;49.234;8.554;2023-07-13T14:53:03;29.40;1.00
3108;DHT22;1564;49.234;8.554;2023-07-13T14:55:36;29.50;1.00
3108;DHT22;1564;49.234;8.554;2023-07-13T14:58:02;30.10;1.00
3108;DHT22;1564;49.234;8.554;2023-07-13T15:00:37;31.20;1.00
3108;DHT22;1564;49.234;8.554;2023-07-13T15:03:04;31.60;1.00
3108;DHT22;1564;49.234;8.554;2023-07-13T15:05:32;31.10;1.00
3108;DHT22;1564;49.234;8.554;2023-07-13T15:08:00;31.00;1.00
3108;DHT22;1564;49.234;8.554;2023-07-13T15:10:31;31.50;1.00
3108;DHT22;1564;49.234;8.554;2023-07-13T15:13:13;32.10;1.00
3108;DHT22;1564;49.234;8.554;2023-07-13T15:15:41;33.10;1.00
3108;DHT22;1564;49.234;8.554;2023-07-13T15:18:11;34.00;1.00
3108;DHT22;1564;49.234;8.554;2023-07-13T15:20:50;33.60;1.00
3108;DHT22;1564;49.234;8.554;2023-07-13T15:23:51;33.00;1.00
3108;DHT22;1564;49.234;8.554;2023-07-13T15:26:20;34.40;1.00
3108;DHT22;1564;49.234;8.554;2023-07-13T15:28:47;36.30;1.00
3108;DHT22;1564;49.234;8.554;2023-07-13T15:31:28;38.00;1.00
3108;DHT22;1564;49.234;8.554;2023-07-13T15:33:57;38.80;1.00
3108;DHT22;1564;49.234;8.554;2023-07-13T15:36:24;38.90;1.00
3108;DHT22;1564;49.234;8.554;2023-07-13T15:38:54;38.80;1.00
3108;DHT22;1564;49.234;8.554;2023-07-13T15:41:28;38.90;1.00
3108;DHT22;1564;49.234;8.554;2023-07-13T15:43:56;39.60;1.00
3108;DHT22;1564;49.234;8.554;2023-07-13T15:46:26;40.10;1.00
3108;DHT22;1564;49.234;8.554;2023-07-13T15:48:53;39.20;1.00
3108;DHT22;1564;49.234;8.554;2023-07-13T15:51:27;38.20;1.00
3108;DHT22;1564;49.234;8.554;2023-07-13T15:53:56;38.80;1.00
3108;DHT22;1564;49.234;8.554;2023-07-13T15:56:28;40.00;1.00
3108;DHT22;1564;49.234;8.554;2023-07-13T15:59:04;41.10;1.00
3108;DHT22;1564;49.234;8.554;2023-07-13T16:01:30;41.60;1.00
3108;DHT22;1564;49.234;8.554;2023-07-13T16:03:57;41.70;1.00
3108;DHT22;1564;49.234;8.554;2023-07-13T16:06:42;41.90;1.00
3108;DHT22;1564;49.234;8.554;2023-07-13T16:09:23;42.10;1.00
3108;DHT22;1564;49.234;8.554;2023-07-13T16:11:49;42.80;1.00
3108;DHT22;1564;49.234;8.554;2023-07-13T16:14:15;42.90;1.00
3108;DHT22;1564;49.234;8.554;2023-07-13T16:16:42;43.00;1.00
3108;DHT22;1564;49.234;8.554;2023-07-13T16:19:09;42.70;1.00
3108;DHT22;1564;49.234;8.554;2023-07-13T16:21:44;41.50;1.00
3108;DHT22;1564;49.234;8.554;2023-07-13T16:24:17;41.30;1.00
3108;DHT22;1564;49.234;8.554;2023-07-13T16:26:43;41.60;1.00
3108;DHT22;1564;49.234;8.554;2023-07-13T16:29:22;41.50;1.00
3108;DHT22;1564;49.234;8.554;2023-07-13T16:33:10;41.40;1.00
3108;DHT22;1564;49.234;8.554;2023-07-13T16:35:41;40.80;1.00
3108;DHT22;1564;49.234;8.554;2023-07-13T16:38:22;40.20;1.00
3108;DHT22;1564;49.234;8.554;2023-07-13T16:40:49;39.70;1.00
3108;DHT22;1564;49.234;8.554;2023-07-13T16:43:17;39.10;1.00
3108;DHT22;1564;49.234;8.554;2023-07-13T16:45:50;39.20;1.00
3108;DHT22;1564;49.234;8.554;2023-07-13T16:48:18;39.80;1.00
3108;DHT22;1564;49.234;8.554;2023-07-13T16:50:51;40.40;1.00
3108;DHT22;1564;49.234;8.554;2023-07-13T16:53:26;40.70;1.00